Ludivine F/v — FVXR — position and weather

sailwx.info

Track history (hours):
 
Tides and Currents Weather Stations Pressure Air Temp Water Temp Dewpoint Dewpoint Depression Visibility Wind Speed Wind Dir Waves Ship Positions

Ludivine F/v

Last reported at 2018-Jun-18 23:00 UTC. Time now 2018-Jun-18 23:18 UTC.
Position N 48°24' W 004°51'.

Length 16 m.

Type: Fishing. MMSI: 227988000.

Date/timePositionNaut miles runAvg speedWind from/ knotsBaromVisibWave heightAir tempDewpointWater temp
2018-Jun-18 23:00N 48°24' W 004°51'3 5.7
2018-Jun-18 22:30N 48°22' W 004°48'  
2018-Jun-11 10:02N 48°22' W 004°47'0 0.2
2018-Jun-11 10:01N 48°22' W 004°47'0 0.2
2018-Jun-11 09:30N 48°22' W 004°47'0 0.0
2018-Jun-11 09:00N 48°22' W 004°47'3 5.7
2018-Jun-11 08:31N 48°22' W 004°51'4 8.3
2018-Jun-11 08:00N 48°20' W 004°57'4 7.6
2018-Jun-11 07:28N 48°21' W 005°03'4 8.3
2018-Jun-11 07:00N 48°23' W 005°08'5 9.1
2018-Jun-11 06:26N 48°26' W 005°15'10 2.4
2018-Jun-11 02:15N 48°35' W 005°21'1 2.3
2018-Jun-11 01:51N 48°34' W 005°21'2 2.2
2018-Jun-11 01:09N 48°32' W 005°21'6 3.0
2018-Jun-10 23:19N 48°28' W 005°16'2 7.8
2018-Jun-10 23:00N 48°27' W 005°13'4 8.0
2018-Jun-10 22:30N 48°27' W 005°07'0 0.9
2018-Jun-10 22:00N 48°27' W 005°06'0 0.0
2018-Jun-10 21:30N 48°27' W 005°06'0 0.0
2018-Jun-10 21:00N 48°27' W 005°06'0 0.0
2018-Jun-10 20:29N 48°27' W 005°06'0 0.0
2018-Jun-10 19:58N 48°27' W 005°06'0 0.0
2018-Jun-10 19:27N 48°27' W 005°06'0 0.0
2018-Jun-10 18:58N 48°27' W 005°06'0 0.0
2018-Jun-10 18:29N 48°27' W 005°06'0 0.0
2018-Jun-10 18:00N 48°27' W 005°06'0 0.0
2018-Jun-10 17:30N 48°27' W 005°06'0 0.0
2018-Jun-10 17:00N 48°27' W 005°06'3 5.6
2018-Jun-10 16:30N 48°26' W 005°10'5 8.5
2018-Jun-10 15:57N 48°29' W 005°16'6 2.4
2018-Jun-10 13:17N 48°33' W 005°23'8 0.8
2018-Jun-10 02:45N 48°32' W 005°11'2 8.1
2018-Jun-10 02:30N 48°31' W 005°09'4 8.4
2018-Jun-10 02:01N 48°30' W 005°03'4 8.0
2018-Jun-10 01:30N 48°28' W 004°57'4 8.3
2018-Jun-10 01:00N 48°25' W 004°52'4 8.4
2018-Jun-10 00:30N 48°22' W 004°48'1 0.1
2018-Jun-09 09:45N 48°22' W 004°47'0 0.4
2018-Jun-09 09:30N 48°22' W 004°47'0 0.0
2018-Jun-09 09:00N 48°22' W 004°47'2 4.7
2018-Jun-09 08:30N 48°22' W 004°50'4 9.0
2018-Jun-09 08:01N 48°21' W 004°57'4 8.0
2018-Jun-09 07:30N 48°22' W 005°03'4 8.3
2018-Jun-09 06:58N 48°23' W 005°09'17 2.4
2018-Jun-09 00:04N 48°36' W 005°26'1 8.7
2018-Jun-08 23:54N 48°35' W 005°24'5 8.4
2018-Jun-08 23:20N 48°32' W 005°19'3 8.7
2018-Jun-08 23:00N 48°30' W 005°15'  
Track history (hours):
 
Tides and Currents Weather Stations Pressure Air Temp Water Temp Dewpoint Dewpoint Depression Visibility Wind Speed Wind Dir Waves Ship Positions

Ludivine F/v

Last reported at 2018-Jun-18 23:00 UTC. Time now 2018-Jun-18 23:18 UTC.
Position N 48°24' W 004°51'.

Length 16 m.

Type: Fishing. MMSI: 227988000.

Date/timePositionNaut miles runAvg speedWind from/ knotsBaromVisibWave heightAir tempDewpointWater temp
2018-Jun-18 23:00N 48°24' W 004°51'3 5.7
2018-Jun-18 22:30N 48°22' W 004°48'  
2018-Jun-11 10:02N 48°22' W 004°47'0 0.2
2018-Jun-11 10:01N 48°22' W 004°47'0 0.2
2018-Jun-11 09:30N 48°22' W 004°47'0 0.0
2018-Jun-11 09:00N 48°22' W 004°47'3 5.7
2018-Jun-11 08:31N 48°22' W 004°51'4 8.3
2018-Jun-11 08:00N 48°20' W 004°57'4 7.6
2018-Jun-11 07:28N 48°21' W 005°03'4 8.3
2018-Jun-11 07:00N 48°23' W 005°08'5 9.1
2018-Jun-11 06:26N 48°26' W 005°15'10 2.4
2018-Jun-11 02:15N 48°35' W 005°21'1 2.3
2018-Jun-11 01:51N 48°34' W 005°21'2 2.2
2018-Jun-11 01:09N 48°32' W 005°21'6 3.0
2018-Jun-10 23:19N 48°28' W 005°16'2 7.8
2018-Jun-10 23:00N 48°27' W 005°13'4 8.0
2018-Jun-10 22:30N 48°27' W 005°07'0 0.9
2018-Jun-10 22:00N 48°27' W 005°06'0 0.0
2018-Jun-10 21:30N 48°27' W 005°06'0 0.0
2018-Jun-10 21:00N 48°27' W 005°06'0 0.0
2018-Jun-10 20:29N 48°27' W 005°06'0 0.0
2018-Jun-10 19:58N 48°27' W 005°06'0 0.0
2018-Jun-10 19:27N 48°27' W 005°06'0 0.0
2018-Jun-10 18:58N 48°27' W 005°06'0 0.0
2018-Jun-10 18:29N 48°27' W 005°06'0 0.0
2018-Jun-10 18:00N 48°27' W 005°06'0 0.0
2018-Jun-10 17:30N 48°27' W 005°06'0 0.0
2018-Jun-10 17:00N 48°27' W 005°06'3 5.6
2018-Jun-10 16:30N 48°26' W 005°10'5 8.5
2018-Jun-10 15:57N 48°29' W 005°16'6 2.4
2018-Jun-10 13:17N 48°33' W 005°23'8 0.8
2018-Jun-10 02:45N 48°32' W 005°11'2 8.1
2018-Jun-10 02:30N 48°31' W 005°09'4 8.4
2018-Jun-10 02:01N 48°30' W 005°03'4 8.0
2018-Jun-10 01:30N 48°28' W 004°57'4 8.3
2018-Jun-10 01:00N 48°25' W 004°52'4 8.4
2018-Jun-10 00:30N 48°22' W 004°48'1 0.1
2018-Jun-09 09:45N 48°22' W 004°47'0 0.4
2018-Jun-09 09:30N 48°22' W 004°47'0 0.0
2018-Jun-09 09:00N 48°22' W 004°47'2 4.7
2018-Jun-09 08:30N 48°22' W 004°50'4 9.0
2018-Jun-09 08:01N 48°21' W 004°57'4 8.0
2018-Jun-09 07:30N 48°22' W 005°03'4 8.3
2018-Jun-09 06:58N 48°23' W 005°09'17 2.4
2018-Jun-09 00:04N 48°36' W 005°26'1 8.7
2018-Jun-08 23:54N 48°35' W 005°24'5 8.4
2018-Jun-08 23:20N 48°32' W 005°19'3 8.7
2018-Jun-08 23:00N 48°30' W 005°15'  

Dump ship's entire track history